sensor_id;sensor_type;location;lat;lon;timestamp;P1;durP1;ratioP1;P2;durP2;ratioP2
76964;SDS011;65903;51.452;7.198;2023-02-01T00:00:48;24.77;;;9.40;;
76964;SDS011;65903;51.452;7.198;2023-02-01T00:01:51;21.80;;;10.98;;
76964;SDS011;65903;51.452;7.198;2023-02-01T00:02:52;26.17;;;10.50;;
76964;SDS011;65903;51.452;7.198;2023-02-01T00:03:53;25.05;;;10.57;;
76964;SDS011;65903;51.452;7.198;2023-02-01T00:05:57;23.15;;;9.27;;
76964;SDS011;65903;51.452;7.198;2023-02-01T00:06:59;19.13;;;9.00;;
76964;SDS011;65903;51.452;7.198;2023-02-01T00:09:02;13.75;;;6.88;;
76964;SDS011;65903;51.452;7.198;2023-02-01T00:10:08;19.15;;;8.35;;
76964;SDS011;65903;51.452;7.198;2023-02-01T00:11:10;20.33;;;8.02;;
76964;SDS011;65903;51.452;7.198;2023-02-01T00:12:14;18.90;;;8.43;;
76964;SDS011;65903;51.452;7.198;2023-02-01T00:13:15;17.17;;;7.57;;
76964;SDS011;65903;51.452;7.198;2023-02-01T00:14:16;25.08;;;7.70;;
76964;SDS011;65903;51.452;7.198;2023-02-01T00:15:17;17.05;;;7.95;;
76964;SDS011;65903;51.452;7.198;2023-02-01T00:16:26;14.38;;;7.65;;
76964;SDS011;65903;51.452;7.198;2023-02-01T00:17:28;22.38;;;8.35;;
76964;SDS011;65903;51.452;7.198;2023-02-01T00:18:29;16.15;;;6.55;;
76964;SDS011;65903;51.452;7.198;2023-02-01T00:19:30;18.35;;;6.82;;
76964;SDS011;65903;51.452;7.198;2023-02-01T00:20:33;17.20;;;6.80;;
76964;SDS011;65903;51.452;7.198;2023-02-01T00:21:39;17.50;;;6.93;;
76964;SDS011;65903;51.452;7.198;2023-02-01T00:22:43;16.20;;;6.00;;
76964;SDS011;65903;51.452;7.198;2023-02-01T00:23:46;19.13;;;6.22;;
76964;SDS011;65903;51.452;7.198;2023-02-01T00:24:52;12.77;;;6.30;;
76964;SDS011;65903;51.452;7.198;2023-02-01T00:26:59;16.90;;;5.63;;
76964;SDS011;65903;51.452;7.198;2023-02-01T00:28:02;12.80;;;5.15;;
76964;SDS011;65903;51.452;7.198;2023-02-01T00:29:04;14.00;;;4.95;;
76964;SDS011;65903;51.452;7.198;2023-02-01T00:30:11;14.82;;;6.25;;
76964;SDS011;65903;51.452;7.198;2023-02-01T00:31:12;14.90;;;4.97;;
76964;SDS011;65903;51.452;7.198;2023-02-01T00:32:15;10.40;;;4.40;;
76964;SDS011;65903;51.452;7.198;2023-02-01T00:33:16;13.13;;;5.85;;
76964;SDS011;65903;51.452;7.198;2023-02-01T00:34:17;9.32;;;3.88;;
76964;SDS011;65903;51.452;7.198;2023-02-01T00:35:25;16.92;;;5.07;;
76964;SDS011;65903;51.452;7.198;2023-02-01T00:36:31;14.43;;;5.07;;
76964;SDS011;65903;51.452;7.198;2023-02-01T00:37:31;8.40;;;3.75;;
76964;SDS011;65903;51.452;7.198;2023-02-01T00:38:36;18.05;;;5.45;;
76964;SDS011;65903;51.452;7.198;2023-02-01T00:39:38;12.18;;;4.13;;
76964;SDS011;65903;51.452;7.198;2023-02-01T00:40:38;14.10;;;4.82;;
76964;SDS011;65903;51.452;7.198;2023-02-01T00:41:42;16.30;;;5.35;;
76964;SDS011;65903;51.452;7.198;2023-02-01T00:42:43;11.90;;;4.95;;
76964;SDS011;65903;51.452;7.198;2023-02-01T00:43:46;14.27;;;5.30;;
76964;SDS011;65903;51.452;7.198;2023-02-01T00:44:50;15.32;;;5.78;;
76964;SDS011;65903;51.452;7.198;2023-02-01T00:46:54;8.85;;;3.65;;
76964;SDS011;65903;51.452;7.198;2023-02-01T00:47:57;18.63;;;5.70;;
76964;SDS011;65903;51.452;7.198;2023-02-01T00:49:07;12.35;;;3.63;;
76964;SDS011;65903;51.452;7.198;2023-02-01T00:50:09;14.90;;;5.32;;
76964;SDS011;65903;51.452;7.198;2023-02-01T00:51:12;16.77;;;5.25;;
76964;SDS011;65903;51.452;7.198;2023-02-01T00:52:20;19.88;;;4.72;;
76964;SDS011;65903;51.452;7.198;2023-02-01T00:54:27;10.27;;;3.33;;
76964;SDS011;65903;51.452;7.198;2023-02-01T00:55:30;9.63;;;4.07;;
76964;SDS011;65903;51.452;7.198;2023-02-01T00:56:30;15.82;;;4.47;;
76964;SDS011;65903;51.452;7.198;2023-02-01T00:57:34;9.95;;;3.90;;
76964;SDS011;65903;51.452;7.198;2023-02-01T00:58:38;16.02;;;6.32;;
76964;SDS011;65903;51.452;7.198;2023-02-01T00:59:43;11.20;;;4.35;;
76964;SDS011;65903;51.452;7.198;2023-02-01T01:00:44;12.63;;;4.38;;
76964;SDS011;65903;51.452;7.198;2023-02-01T01:01:50;14.05;;;3.97;;
76964;SDS011;65903;51.452;7.198;2023-02-01T01:03:55;14.68;;;4.97;;
76964;SDS011;65903;51.452;7.198;2023-02-01T01:04:59;14.73;;;5.05;;
76964;SDS011;65903;51.452;7.198;2023-02-01T01:06:01;8.85;;;4.43;;
76964;SDS011;65903;51.452;7.198;2023-02-01T01:07:05;14.45;;;4.63;;
76964;SDS011;65903;51.452;7.198;2023-02-01T01:08:11;12.45;;;4.03;;
76964;SDS011;65903;51.452;7.198;2023-02-01T01:09:15;13.32;;;4.43;;
76964;SDS011;65903;51.452;7.198;2023-02-01T01:10:18;17.23;;;4.70;;
76964;SDS011;65903;51.452;7.198;2023-02-01T01:11:23;13.50;;;4.78;;
76964;SDS011;65903;51.452;7.198;2023-02-01T01:12:30;12.00;;;4.10;;
76964;SDS011;65903;51.452;7.198;2023-02-01T01:13:32;9.95;;;3.90;;
76964;SDS011;65903;51.452;7.198;2023-02-01T01:14:36;13.35;;;4.10;;
76964;SDS011;65903;51.452;7.198;2023-02-01T01:15:41;10.93;;;4.35;;
76964;SDS011;65903;51.452;7.198;2023-02-01T01:16:42;14.98;;;4.90;;
76964;SDS011;65903;51.452;7.198;2023-02-01T01:17:45;17.85;;;5.28;;
76964;SDS011;65903;51.452;7.198;2023-02-01T01:18:46;16.08;;;5.75;;
76964;SDS011;65903;51.452;7.198;2023-02-01T01:19:50;14.98;;;4.93;;
76964;SDS011;65903;51.452;7.198;2023-02-01T01:20:56;20.85;;;5.07;;
76964;SDS011;65903;51.452;7.198;2023-02-01T01:22:00;13.70;;;4.78;;
76964;SDS011;65903;51.452;7.198;2023-02-01T01:23:07;9.43;;;4.03;;
76964;SDS011;65903;51.452;7.198;2023-02-01T01:24:10;19.15;;;5.75;;
76964;SDS011;65903;51.452;7.198;2023-02-01T01:26:15;15.18;;;4.50;;
76964;SDS011;65903;51.452;7.198;2023-02-01T01:27:20;14.55;;;5.03;;
76964;SDS011;65903;51.452;7.198;2023-02-01T01:28:24;14.25;;;4.25;;
76964;SDS011;65903;51.452;7.198;2023-02-01T01:29:25;17.48;;;5.03;;
76964;SDS011;65903;51.452;7.198;2023-02-01T01:30:28;13.23;;;4.75;;
76964;SDS011;65903;51.452;7.198;2023-02-01T01:31:29;12.07;;;5.13;;
76964;SDS011;65903;51.452;7.198;2023-02-01T01:32:32;11.52;;;4.68;;
76964;SDS011;65903;51.452;7.198;2023-02-01T01:33:33;17.83;;;5.30;;
76964;SDS011;65903;51.452;7.198;2023-02-01T01:34:36;12.57;;;5.15;;
76964;SDS011;65903;51.452;7.198;2023-02-01T01:35:45;11.70;;;4.60;;
76964;SDS011;65903;51.452;7.198;2023-02-01T01:36:46;14.40;;;6.05;;
76964;SDS011;65903;51.452;7.198;2023-02-01T01:37:49;10.93;;;5.18;;
76964;SDS011;65903;51.452;7.198;2023-02-01T01:38:50;11.13;;;4.65;;
76964;SDS011;65903;51.452;7.198;2023-02-01T01:39:52;19.63;;;5.95;;
76964;SDS011;65903;51.452;7.198;2023-02-01T01:40:56;13.27;;;5.25;;
76964;SDS011;65903;51.452;7.198;2023-02-01T01:41:59;11.50;;;4.82;;
76964;SDS011;65903;51.452;7.198;2023-02-01T01:43:05;15.88;;;5.25;;
76964;SDS011;65903;51.452;7.198;2023-02-01T01:45:53;14.43;;;6.00;;
76964;SDS011;65903;51.452;7.198;2023-02-01T01:46:54;11.98;;;4.97;;
76964;SDS011;65903;51.452;7.198;2023-02-01T01:47:58;17.02;;;5.90;;
76964;SDS011;65903;51.452;7.198;2023-02-01T01:50:20;19.73;;;5.28;;
76964;SDS011;65903;51.452;7.198;2023-02-01T01:52:38;17.30;;;5.30;;
76964;SDS011;65903;51.452;7.198;2023-02-01T01:53:45;10.50;;;4.95;;
76964;SDS011;65903;51.452;7.198;2023-02-01T01:54:52;18.70;;;5.30;;
76964;SDS011;65903;51.452;7.198;2023-02-01T01:55:54;12.93;;;5.30;;
76964;SDS011;65903;51.452;7.198;2023-02-01T01:57:00;13.02;;;5.35;;
76964;SDS011;65903;51.452;7.198;2023-02-01T01:58:09;16.50;;;5.05;;
76964;SDS011;65903;51.452;7.198;2023-02-01T01:59:14;17.08;;;5.32;;
76964;SDS011;65903;51.452;7.198;2023-02-01T02:00:16;12.18;;;5.75;;
76964;SDS011;65903;51.452;7.198;2023-02-01T02:01:20;13.70;;;4.57;;
76964;SDS011;65903;51.452;7.198;2023-02-01T02:02:23;14.48;;;5.82;;
76964;SDS011;65903;51.452;7.198;2023-02-01T02:03:26;11.60;;;4.95;;
76964;SDS011;65903;51.452;7.198;2023-02-01T02:04:54;13.30;;;5.07;;
76964;SDS011;65903;51.452;7.198;2023-02-01T02:05:57;15.82;;;5.57;;
76964;SDS011;65903;51.452;7.198;2023-02-01T02:07:03;13.93;;;4.93;;
76964;SDS011;65903;51.452;7.198;2023-02-01T02:08:07;12.13;;;4.07;;
76964;SDS011;65903;51.452;7.198;2023-02-01T02:09:08;8.82;;;4.28;;
76964;SDS011;65903;51.452;7.198;2023-02-01T02:10:12;15.18;;;5.13;;
76964;SDS011;65903;51.452;7.198;2023-02-01T02:11:16;15.70;;;5.40;;
76964;SDS011;65903;51.452;7.198;2023-02-01T02:12:17;15.18;;;5.47;;
76964;SDS011;65903;51.452;7.198;2023-02-01T02:13:20;13.77;;;5.22;;
76964;SDS011;65903;51.452;7.198;2023-02-01T02:14:24;11.10;;;4.35;;
76964;SDS011;65903;51.452;7.198;2023-02-01T02:15:26;15.63;;;5.30;;
76964;SDS011;65903;51.452;7.198;2023-02-01T02:17:58;21.30;;;5.30;;
76964;SDS011;65903;51.452;7.198;2023-02-01T02:33:00;15.63;;;4.50;;
76964;SDS011;65903;51.452;7.198;2023-02-01T02:37:04;17.42;;;3.83;;
76964;SDS011;65903;51.452;7.198;2023-02-01T02:41:54;14.57;;;4.55;;
76964;SDS011;65903;51.452;7.198;2023-02-01T02:43:24;12.02;;;4.78;;
76964;SDS011;65903;51.452;7.198;2023-02-01T02:44:54;12.90;;;4.18;;
76964;SDS011;65903;51.452;7.198;2023-02-01T02:47:50;9.95;;;4.28;;
76964;SDS011;65903;51.452;7.198;2023-02-01T02:52:09;11.48;;;3.80;;
76964;SDS011;65903;51.452;7.198;2023-02-01T02:55:05;7.75;;;2.85;;
76964;SDS011;65903;51.452;7.198;2023-02-01T02:56:11;13.65;;;3.60;;
76964;SDS011;65903;51.452;7.198;2023-02-01T02:57:38;10.95;;;4.38;;
76964;SDS011;65903;51.452;7.198;2023-02-01T02:59:00;9.32;;;2.72;;
76964;SDS011;65903;51.452;7.198;2023-02-01T03:00:22;14.13;;;3.63;;
76964;SDS011;65903;51.452;7.198;2023-02-01T03:01:49;11.73;;;3.72;;
76964;SDS011;65903;51.452;7.198;2023-02-01T03:03:08;11.30;;;3.90;;
76964;SDS011;65903;51.452;7.198;2023-02-01T03:04:30;14.18;;;3.40;;
76964;SDS011;65903;51.452;7.198;2023-02-01T03:05:34;11.98;;;3.78;;
76964;SDS011;65903;51.452;7.198;2023-02-01T03:06:39;13.85;;;3.60;;
76964;SDS011;65903;51.452;7.198;2023-02-01T03:09:12;10.63;;;3.03;;
76964;SDS011;65903;51.452;7.198;2023-02-01T03:11:40;13.23;;;3.65;;
76964;SDS011;65903;51.452;7.198;2023-02-01T03:13:06;16.50;;;3.95;;
76964;SDS011;65903;51.452;7.198;2023-02-01T03:14:09;9.80;;;3.38;;
76964;SDS011;65903;51.452;7.198;2023-02-01T03:15:11;17.70;;;4.30;;
76964;SDS011;65903;51.452;7.198;2023-02-01T03:17:35;12.45;;;3.40;;
76964;SDS011;65903;51.452;7.198;2023-02-01T03:19:49;11.07;;;3.65;;
76964;SDS011;65903;51.452;7.198;2023-02-01T03:20:51;13.07;;;3.40;;
76964;SDS011;65903;51.452;7.198;2023-02-01T03:22:04;7.95;;;2.72;;
76964;SDS011;65903;51.452;7.198;2023-02-01T03:23:08;11.38;;;3.25;;
76964;SDS011;65903;51.452;7.198;2023-02-01T03:24:12;8.43;;;2.90;;
76964;SDS011;65903;51.452;7.198;2023-02-01T03:25:21;20.88;;;3.60;;
76964;SDS011;65903;51.452;7.198;2023-02-01T03:26:25;12.50;;;3.83;;
76964;SDS011;65903;51.452;7.198;2023-02-01T03:27:27;12.32;;;3.45;;
76964;SDS011;65903;51.452;7.198;2023-02-01T03:29:32;10.45;;;3.70;;
76964;SDS011;65903;51.452;7.198;2023-02-01T03:30:38;10.70;;;3.05;;
76964;SDS011;65903;51.452;7.198;2023-02-01T03:31:43;7.97;;;3.00;;
76964;SDS011;65903;51.452;7.198;2023-02-01T03:32:45;9.60;;;3.30;;
76964;SDS011;65903;51.452;7.198;2023-02-01T03:34:02;12.73;;;3.40;;
76964;SDS011;65903;51.452;7.198;2023-02-01T03:35:04;11.93;;;3.78;;
76964;SDS011;65903;51.452;7.198;2023-02-01T03:36:07;12.93;;;3.40;;
76964;SDS011;65903;51.452;7.198;2023-02-01T03:37:11;10.00;;;3.13;;
76964;SDS011;65903;51.452;7.198;2023-02-01T03:39:43;13.45;;;3.40;;
76964;SDS011;65903;51.452;7.198;2023-02-01T03:40:50;11.27;;;2.92;;
76964;SDS011;65903;51.452;7.198;2023-02-01T03:41:54;16.25;;;3.78;;
76964;SDS011;65903;51.452;7.198;2023-02-01T03:43:01;11.38;;;4.05;;
76964;SDS011;65903;51.452;7.198;2023-02-01T03:45:10;15.35;;;4.22;;
76964;SDS011;65903;51.452;7.198;2023-02-01T03:46:20;12.70;;;3.28;;
76964;SDS011;65903;51.452;7.198;2023-02-01T03:47:34;13.98;;;3.45;;
76964;SDS011;65903;51.452;7.198;2023-02-01T03:48:38;11.18;;;3.28;;
76964;SDS011;65903;51.452;7.198;2023-02-01T03:50:44;13.13;;;3.80;;
76964;SDS011;65903;51.452;7.198;2023-02-01T03:51:49;11.88;;;4.20;;
76964;SDS011;65903;51.452;7.198;2023-02-01T03:52:58;14.68;;;3.50;;
76964;SDS011;65903;51.452;7.198;2023-02-01T03:54:06;10.20;;;3.28;;
76964;SDS011;65903;51.452;7.198;2023-02-01T03:55:11;13.07;;;3.00;;
76964;SDS011;65903;51.452;7.198;2023-02-01T03:56:14;12.48;;;4.07;;
76964;SDS011;65903;51.452;7.198;2023-02-01T03:57:16;12.60;;;3.75;;
76964;SDS011;65903;51.452;7.198;2023-02-01T03:58:21;12.30;;;3.90;;
76964;SDS011;65903;51.452;7.198;2023-02-01T03:59:25;13.30;;;4.10;;
76964;SDS011;65903;51.452;7.198;2023-02-01T04:00:26;15.57;;;3.97;;
76964;SDS011;65903;51.452;7.198;2023-02-01T04:01:28;15.98;;;3.75;;
76964;SDS011;65903;51.452;7.198;2023-02-01T04:02:30;12.70;;;3.60;;
76964;SDS011;65903;51.452;7.198;2023-02-01T04:03:34;13.23;;;3.38;;
76964;SDS011;65903;51.452;7.198;2023-02-01T04:04:35;12.63;;;3.80;;
76964;SDS011;65903;51.452;7.198;2023-02-01T04:05:38;17.52;;;3.40;;
76964;SDS011;65903;51.452;7.198;2023-02-01T04:06:39;15.60;;;3.33;;
76964;SDS011;65903;51.452;7.198;2023-02-01T04:07:45;9.27;;;3.10;;
76964;SDS011;65903;51.452;7.198;2023-02-01T04:08:45;11.60;;;3.67;;
76964;SDS011;65903;51.452;7.198;2023-02-01T04:09:48;16.50;;;4.90;;
76964;SDS011;65903;51.452;7.198;2023-02-01T04:10:49;12.88;;;3.80;;
76964;SDS011;65903;51.452;7.198;2023-02-01T04:11:50;9.75;;;3.78;;
76964;SDS011;65903;51.452;7.198;2023-02-01T04:12:51;12.38;;;4.07;;
76964;SDS011;65903;51.452;7.198;2023-02-01T04:13:51;8.00;;;3.35;;
76964;SDS011;65903;51.452;7.198;2023-02-01T04:14:55;15.00;;;3.78;;
76964;SDS011;65903;51.452;7.198;2023-02-01T04:15:55;13.23;;;3.17;;
76964;SDS011;65903;51.452;7.198;2023-02-01T04:16:56;18.08;;;3.88;;
76964;SDS011;65903;51.452;7.198;2023-02-01T04:17:57;13.43;;;3.83;;
76964;SDS011;65903;51.452;7.198;2023-02-01T04:18:58;17.50;;;4.45;;
76964;SDS011;65903;51.452;7.198;2023-02-01T04:19:59;16.58;;;3.35;;
76964;SDS011;65903;51.452;7.198;2023-02-01T04:20:59;13.32;;;3.50;;
76964;SDS011;65903;51.452;7.198;2023-02-01T04:22:01;17.42;;;4.57;;
76964;SDS011;65903;51.452;7.198;2023-02-01T04:23:02;12.15;;;3.65;;
76964;SDS011;65903;51.452;7.198;2023-02-01T04:24:03;17.17;;;3.67;;
76964;SDS011;65903;51.452;7.198;2023-02-01T04:25:07;17.27;;;3.60;;
76964;SDS011;65903;51.452;7.198;2023-02-01T04:26:08;17.00;;;3.90;;
76964;SDS011;65903;51.452;7.198;2023-02-01T04:28:14;12.80;;;3.97;;
76964;SDS011;65903;51.452;7.198;2023-02-01T04:29:15;9.98;;;3.03;;
76964;SDS011;65903;51.452;7.198;2023-02-01T04:30:16;14.38;;;3.47;;
76964;SDS011;65903;51.452;7.198;2023-02-01T04:31:17;14.45;;;3.78;;
76964;SDS011;65903;51.452;7.198;2023-02-01T04:32:25;15.93;;;3.95;;
76964;SDS011;65903;51.452;7.198;2023-02-01T04:33:26;16.58;;;3.83;;
76964;SDS011;65903;51.452;7.198;2023-02-01T04:34:27;18.40;;;4.28;;
76964;SDS011;65903;51.452;7.198;2023-02-01T04:35:29;11.20;;;3.53;;
76964;SDS011;65903;51.452;7.198;2023-02-01T04:36:30;14.30;;;3.85;;
76964;SDS011;65903;51.452;7.198;2023-02-01T04:37:31;12.60;;;3.63;;
76964;SDS011;65903;51.452;7.198;2023-02-01T04:38:32;15.75;;;4.30;;
76964;SDS011;65903;51.452;7.198;2023-02-01T04:39:35;15.05;;;4.07;;
76964;SDS011;65903;51.452;7.198;2023-02-01T04:40:36;12.00;;;3.95;;
76964;SDS011;65903;51.452;7.198;2023-02-01T04:41:38;16.45;;;3.85;;
76964;SDS011;65903;51.452;7.198;2023-02-01T04:42:38;11.68;;;4.47;;
76964;SDS011;65903;51.452;7.198;2023-02-01T04:43:39;16.20;;;3.88;;
76964;SDS011;65903;51.452;7.198;2023-02-01T04:44:40;9.48;;;3.47;;
76964;SDS011;65903;51.452;7.198;2023-02-01T04:45:46;14.13;;;3.35;;
76964;SDS011;65903;51.452;7.198;2023-02-01T04:46:47;14.65;;;3.95;;
76964;SDS011;65903;51.452;7.198;2023-02-01T04:47:48;11.60;;;3.78;;
76964;SDS011;65903;51.452;7.198;2023-02-01T04:48:52;9.68;;;4.05;;
76964;SDS011;65903;51.452;7.198;2023-02-01T04:49:53;18.95;;;4.10;;
76964;SDS011;65903;51.452;7.198;2023-02-01T04:50:56;16.90;;;4.03;;
76964;SDS011;65903;51.452;7.198;2023-02-01T04:51:57;14.23;;;3.65;;
76964;SDS011;65903;51.452;7.198;2023-02-01T04:53:02;9.55;;;2.97;;
76964;SDS011;65903;51.452;7.198;2023-02-01T04:54:03;12.50;;;4.35;;
76964;SDS011;65903;51.452;7.198;2023-02-01T04:55:08;17.35;;;4.35;;
76964;SDS011;65903;51.452;7.198;2023-02-01T04:56:09;13.93;;;3.85;;
76964;SDS011;65903;51.452;7.198;2023-02-01T04:57:12;12.38;;;3.72;;
76964;SDS011;65903;51.452;7.198;2023-02-01T04:58:13;11.95;;;3.30;;
76964;SDS011;65903;51.452;7.198;2023-02-01T04:59:14;11.43;;;3.72;;
76964;SDS011;65903;51.452;7.198;2023-02-01T05:00:15;21.35;;;4.45;;
76964;SDS011;65903;51.452;7.198;2023-02-01T05:01:16;13.85;;;3.65;;
76964;SDS011;65903;51.452;7.198;2023-02-01T05:02:19;16.20;;;3.90;;
76964;SDS011;65903;51.452;7.198;2023-02-01T05:03:22;15.57;;;4.18;;
76964;SDS011;65903;51.452;7.198;2023-02-01T05:04:23;18.23;;;3.58;;
76964;SDS011;65903;51.452;7.198;2023-02-01T05:05:24;19.05;;;3.95;;
76964;SDS011;65903;51.452;7.198;2023-02-01T05:06:25;13.70;;;3.95;;
76964;SDS011;65903;51.452;7.198;2023-02-01T05:07:26;11.32;;;3.40;;
76964;SDS011;65903;51.452;7.198;2023-02-01T05:08:27;11.77;;;3.95;;
76964;SDS011;65903;51.452;7.198;2023-02-01T05:09:29;15.63;;;4.50;;
76964;SDS011;65903;51.452;7.198;2023-02-01T05:10:30;10.80;;;3.22;;
76964;SDS011;65903;51.452;7.198;2023-02-01T05:11:30;10.85;;;3.72;;
76964;SDS011;65903;51.452;7.198;2023-02-01T05:12:50;12.82;;;3.63;;
76964;SDS011;65903;51.452;7.198;2023-02-01T05:14:09;13.18;;;3.70;;
76964;SDS011;65903;51.452;7.198;2023-02-01T05:15:10;17.02;;;4.05;;
76964;SDS011;65903;51.452;7.198;2023-02-01T05:16:10;17.10;;;3.83;;
76964;SDS011;65903;51.452;7.198;2023-02-01T05:17:11;11.30;;;3.65;;
76964;SDS011;65903;51.452;7.198;2023-02-01T05:19:15;12.48;;;3.55;;
76964;SDS011;65903;51.452;7.198;2023-02-01T05:20:19;14.07;;;3.45;;
76964;SDS011;65903;51.452;7.198;2023-02-01T05:21:20;13.60;;;3.65;;
76964;SDS011;65903;51.452;7.198;2023-02-01T05:22:21;13.88;;;3.33;;
76964;SDS011;65903;51.452;7.198;2023-02-01T05:23:21;18.73;;;4.00;;
76964;SDS011;65903;51.452;7.198;2023-02-01T05:24:22;14.60;;;3.58;;
76964;SDS011;65903;51.452;7.198;2023-02-01T05:25:23;15.05;;;4.05;;
76964;SDS011;65903;51.452;7.198;2023-02-01T05:26:24;14.18;;;4.07;;
76964;SDS011;65903;51.452;7.198;2023-02-01T05:27:25;15.15;;;3.58;;
76964;SDS011;65903;51.452;7.198;2023-02-01T05:28:26;12.73;;;3.78;;
76964;SDS011;65903;51.452;7.198;2023-02-01T05:29:30;16.27;;;3.80;;
76964;SDS011;65903;51.452;7.198;2023-02-01T05:30:30;16.00;;;3.85;;
76964;SDS011;65903;51.452;7.198;2023-02-01T05:31:35;12.43;;;3.95;;
76964;SDS011;65903;51.452;7.198;2023-02-01T05:32:36;13.75;;;3.67;;
76964;SDS011;65903;51.452;7.198;2023-02-01T05:34:42;19.92;;;4.55;;
76964;SDS011;65903;51.452;7.198;2023-02-01T05:35:42;19.40;;;3.88;;
76964;SDS011;65903;51.452;7.198;2023-02-01T05:36:43;13.25;;;3.88;;
76964;SDS011;65903;51.452;7.198;2023-02-01T05:37:47;9.75;;;3.13;;
76964;SDS011;65903;51.452;7.198;2023-02-01T05:38:47;13.02;;;3.85;;
76964;SDS011;65903;51.452;7.198;2023-02-01T05:39:48;16.58;;;4.25;;
76964;SDS011;65903;51.452;7.198;2023-02-01T05:40:49;15.60;;;3.42;;
76964;SDS011;65903;51.452;7.198;2023-02-01T05:41:50;19.52;;;4.35;;
76964;SDS011;65903;51.452;7.198;2023-02-01T05:42:53;16.95;;;3.63;;
76964;SDS011;65903;51.452;7.198;2023-02-01T05:43:54;19.85;;;4.65;;
76964;SDS011;65903;51.452;7.198;2023-02-01T05:44:55;14.98;;;3.42;;
76964;SDS011;65903;51.452;7.198;2023-02-01T05:45:55;9.23;;;3.05;;
76964;SDS011;65903;51.452;7.198;2023-02-01T05:46:57;15.52;;;3.75;;
76964;SDS011;65903;51.452;7.198;2023-02-01T05:47:58;14.85;;;4.10;;
76964;SDS011;65903;51.452;7.198;2023-02-01T05:48:59;15.05;;;4.10;;
76964;SDS011;65903;51.452;7.198;2023-02-01T05:49:59;14.95;;;3.47;;
76964;SDS011;65903;51.452;7.198;2023-02-01T05:51:00;15.10;;;3.50;;
76964;SDS011;65903;51.452;7.198;2023-02-01T05:52:04;16.10;;;5.00;;
76964;SDS011;65903;51.452;7.198;2023-02-01T05:53:05;15.15;;;3.47;;
76964;SDS011;65903;51.452;7.198;2023-02-01T05:54:08;11.85;;;3.03;;
76964;SDS011;65903;51.452;7.198;2023-02-01T05:55:11;10.60;;;3.05;;
76964;SDS011;65903;51.452;7.198;2023-02-01T05:56:14;14.60;;;4.18;;
76964;SDS011;65903;51.452;7.198;2023-02-01T05:57:15;12.95;;;4.20;;
76964;SDS011;65903;51.452;7.198;2023-02-01T05:58:16;14.88;;;3.83;;
76964;SDS011;65903;51.452;7.198;2023-02-01T05:59:17;10.60;;;2.92;;
76964;SDS011;65903;51.452;7.198;2023-02-01T06:00:17;12.80;;;3.53;;
76964;SDS011;65903;51.452;7.198;2023-02-01T06:01:19;15.10;;;3.55;;
76964;SDS011;65903;51.452;7.198;2023-02-01T06:02:19;18.20;;;3.97;;
76964;SDS011;65903;51.452;7.198;2023-02-01T06:03:22;15.65;;;4.47;;
76964;SDS011;65903;51.452;7.198;2023-02-01T06:04:22;13.57;;;3.35;;
76964;SDS011;65903;51.452;7.198;2023-02-01T06:05:24;16.70;;;3.60;;
76964;SDS011;65903;51.452;7.198;2023-02-01T06:06:25;16.75;;;3.63;;
76964;SDS011;65903;51.452;7.198;2023-02-01T06:07:26;11.30;;;3.60;;
76964;SDS011;65903;51.452;7.198;2023-02-01T06:08:29;11.18;;;3.28;;
76964;SDS011;65903;51.452;7.198;2023-02-01T06:09:32;15.45;;;3.85;;
76964;SDS011;65903;51.452;7.198;2023-02-01T06:10:34;14.85;;;4.18;;
76964;SDS011;65903;51.452;7.198;2023-02-01T06:11:35;17.65;;;3.80;;
76964;SDS011;65903;51.452;7.198;2023-02-01T06:12:36;14.13;;;4.10;;
76964;SDS011;65903;51.452;7.198;2023-02-01T06:13:42;15.25;;;3.33;;
76964;SDS011;65903;51.452;7.198;2023-02-01T06:14:45;11.10;;;3.67;;
76964;SDS011;65903;51.452;7.198;2023-02-01T06:15:46;16.92;;;3.60;;
76964;SDS011;65903;51.452;7.198;2023-02-01T06:16:47;11.68;;;3.20;;
76964;SDS011;65903;51.452;7.198;2023-02-01T06:17:48;14.15;;;3.45;;
76964;SDS011;65903;51.452;7.198;2023-02-01T06:18:49;12.18;;;3.47;;
76964;SDS011;65903;51.452;7.198;2023-02-01T06:19:50;12.02;;;3.60;;
76964;SDS011;65903;51.452;7.198;2023-02-01T06:20:52;16.50;;;4.28;;
76964;SDS011;65903;51.452;7.198;2023-02-01T06:21:57;12.73;;;3.50;;
76964;SDS011;65903;51.452;7.198;2023-02-01T06:22:57;13.68;;;4.10;;
76964;SDS011;65903;51.452;7.198;2023-02-01T06:23:58;13.00;;;3.70;;
76964;SDS011;65903;51.452;7.198;2023-02-01T06:24:59;13.32;;;4.07;;
76964;SDS011;65903;51.452;7.198;2023-02-01T06:26:00;8.70;;;3.47;;
76964;SDS011;65903;51.452;7.198;2023-02-01T06:27:05;20.33;;;5.30;;
76964;SDS011;65903;51.452;7.198;2023-02-01T06:28:06;18.85;;;4.40;;
76964;SDS011;65903;51.452;7.198;2023-02-01T06:30:10;10.85;;;3.47;;
76964;SDS011;65903;51.452;7.198;2023-02-01T06:31:13;12.85;;;4.10;;
76964;SDS011;65903;51.452;7.198;2023-02-01T06:32:14;14.98;;;3.47;;
76964;SDS011;65903;51.452;7.198;2023-02-01T06:33:18;12.30;;;3.30;;
76964;SDS011;65903;51.452;7.198;2023-02-01T06:34:18;11.82;;;3.53;;
76964;SDS011;65903;51.452;7.198;2023-02-01T06:35:22;17.38;;;4.22;;
76964;SDS011;65903;51.452;7.198;2023-02-01T06:36:26;20.10;;;3.30;;
76964;SDS011;65903;51.452;7.198;2023-02-01T06:37:27;13.43;;;4.00;;
76964;SDS011;65903;51.452;7.198;2023-02-01T06:38:30;17.05;;;4.82;;
76964;SDS011;65903;51.452;7.198;2023-02-01T06:39:37;18.08;;;4.05;;
76964;SDS011;65903;51.452;7.198;2023-02-01T06:40:38;18.88;;;3.60;;
76964;SDS011;65903;51.452;7.198;2023-02-01T06:41:40;15.30;;;3.63;;
76964;SDS011;65903;51.452;7.198;2023-02-01T06:42:41;14.48;;;3.40;;
76964;SDS011;65903;51.452;7.198;2023-02-01T06:43:42;19.63;;;3.72;;
76964;SDS011;65903;51.452;7.198;2023-02-01T06:44:45;21.13;;;4.18;;
76964;SDS011;65903;51.452;7.198;2023-02-01T06:45:46;15.43;;;3.63;;
76964;SDS011;65903;51.452;7.198;2023-02-01T06:46:52;16.92;;;3.70;;
76964;SDS011;65903;51.452;7.198;2023-02-01T06:47:53;11.15;;;3.45;;
76964;SDS011;65903;51.452;7.198;2023-02-01T06:48:55;15.13;;;3.88;;
76964;SDS011;65903;51.452;7.198;2023-02-01T06:49:56;11.85;;;3.90;;
76964;SDS011;65903;51.452;7.198;2023-02-01T06:50:57;15.40;;;4.50;;
76964;SDS011;65903;51.452;7.198;2023-02-01T06:51:58;15.45;;;4.05;;
76964;SDS011;65903;51.452;7.198;2023-02-01T06:53:02;14.63;;;4.53;;
76964;SDS011;65903;51.452;7.198;2023-02-01T06:54:05;13.70;;;4.13;;
76964;SDS011;65903;51.452;7.198;2023-02-01T06:55:08;17.88;;;5.10;;
76964;SDS011;65903;51.452;7.198;2023-02-01T06:56:09;15.57;;;3.63;;
76964;SDS011;65903;51.452;7.198;2023-02-01T06:57:09;10.73;;;3.83;;
76964;SDS011;65903;51.452;7.198;2023-02-01T06:58:10;17.83;;;3.75;;
76964;SDS011;65903;51.452;7.198;2023-02-01T06:59:16;15.98;;;4.15;;
76964;SDS011;65903;51.452;7.198;2023-02-01T07:00:19;12.52;;;3.65;;
76964;SDS011;65903;51.452;7.198;2023-02-01T07:01:20;16.85;;;4.05;;
76964;SDS011;65903;51.452;7.198;2023-02-01T07:02:21;18.65;;;4.18;;
76964;SDS011;65903;51.452;7.198;2023-02-01T07:03:24;16.85;;;4.00;;
76964;SDS011;65903;51.452;7.198;2023-02-01T07:04:25;14.98;;;4.25;;
76964;SDS011;65903;51.452;7.198;2023-02-01T07:05:26;14.13;;;4.03;;
76964;SDS011;65903;51.452;7.198;2023-02-01T07:06:27;12.27;;;3.42;;
76964;SDS011;65903;51.452;7.198;2023-02-01T07:07:27;14.18;;;4.20;;
76964;SDS011;65903;51.452;7.198;2023-02-01T07:08:33;19.70;;;4.68;;
76964;SDS011;65903;51.452;7.198;2023-02-01T07:09:35;19.30;;;3.42;;
76964;SDS011;65903;51.452;7.198;2023-02-01T07:10:38;11.75;;;3.65;;
76964;SDS011;65903;51.452;7.198;2023-02-01T07:11:39;11.15;;;3.38;;
76964;SDS011;65903;51.452;7.198;2023-02-01T07:12:43;14.00;;;3.88;;